sensor_id;sensor_type;location;lat;lon;timestamp;temperature;humidity
11491;DHT22;5802;52.832;4.758;2022-12-20T00:00:50;21.30;43.30
11491;DHT22;5802;52.832;4.758;2022-12-20T00:03:17;21.30;43.30
11491;DHT22;5802;52.832;4.758;2022-12-20T00:05:44;21.30;43.30
11491;DHT22;5802;52.832;4.758;2022-12-20T00:08:12;21.30;43.30
11491;DHT22;5802;52.832;4.758;2022-12-20T00:10:42;21.30;43.30
11491;DHT22;5802;52.832;4.758;2022-12-20T00:13:09;21.30;43.30
11491;DHT22;5802;52.832;4.758;2022-12-20T00:15:37;21.30;43.30
11491;DHT22;5802;52.832;4.758;2022-12-20T00:18:03;21.30;43.30
11491;DHT22;5802;52.832;4.758;2022-12-20T00:20:30;21.30;43.30
11491;DHT22;5802;52.832;4.758;2022-12-20T00:22:57;21.30;43.40
11491;DHT22;5802;52.832;4.758;2022-12-20T00:25:24;21.40;43.30
11491;DHT22;5802;52.832;4.758;2022-12-20T00:27:52;21.40;43.30
11491;DHT22;5802;52.832;4.758;2022-12-20T00:30:19;21.40;43.40
11491;DHT22;5802;52.832;4.758;2022-12-20T00:32:45;21.40;43.30
11491;DHT22;5802;52.832;4.758;2022-12-20T00:35:12;21.40;43.30
11491;DHT22;5802;52.832;4.758;2022-12-20T00:37:39;21.40;43.30
11491;DHT22;5802;52.832;4.758;2022-12-20T00:40:07;21.40;43.30
11491;DHT22;5802;52.832;4.758;2022-12-20T00:42:34;21.40;43.40
11491;DHT22;5802;52.832;4.758;2022-12-20T00:45:03;21.40;43.30
11491;DHT22;5802;52.832;4.758;2022-12-20T00:47:29;21.40;43.30
11491;DHT22;5802;52.832;4.758;2022-12-20T00:49:56;21.40;43.30
11491;DHT22;5802;52.832;4.758;2022-12-20T00:52:23;21.40;43.30
11491;DHT22;5802;52.832;4.758;2022-12-20T00:54:49;21.50;43.40
11491;DHT22;5802;52.832;4.758;2022-12-20T00:57:16;21.50;43.30
11491;DHT22;5802;52.832;4.758;2022-12-20T00:59:43;21.50;43.40
11491;DHT22;5802;52.832;4.758;2022-12-20T01:02:11;21.50;43.30
11491;DHT22;5802;52.832;4.758;2022-12-20T01:04:37;21.50;43.30
11491;DHT22;5802;52.832;4.758;2022-12-20T01:07:04;21.50;43.30
11491;DHT22;5802;52.832;4.758;2022-12-20T01:09:31;21.50;43.30
11491;DHT22;5802;52.832;4.758;2022-12-20T01:11:57;21.50;43.30
11491;DHT22;5802;52.832;4.758;2022-12-20T01:14:24;21.50;43.30
11491;DHT22;5802;52.832;4.758;2022-12-20T01:16:51;21.50;43.30
11491;DHT22;5802;52.832;4.758;2022-12-20T01:19:19;21.50;43.30
11491;DHT22;5802;52.832;4.758;2022-12-20T01:21:45;21.60;43.40
11491;DHT22;5802;52.832;4.758;2022-12-20T01:24:12;21.60;43.30
11491;DHT22;5802;52.832;4.758;2022-12-20T01:26:39;21.60;43.30
11491;DHT22;5802;52.832;4.758;2022-12-20T01:29:06;21.60;43.30
11491;DHT22;5802;52.832;4.758;2022-12-20T01:31:32;21.60;43.30
11491;DHT22;5802;52.832;4.758;2022-12-20T01:33:59;21.60;43.30
11491;DHT22;5802;52.832;4.758;2022-12-20T01:36:29;21.60;43.30
11491;DHT22;5802;52.832;4.758;2022-12-20T01:39:00;21.60;43.30
11491;DHT22;5802;52.832;4.758;2022-12-20T01:41:28;21.60;43.30
11491;DHT22;5802;52.832;4.758;2022-12-20T01:43:57;21.70;43.40
11491;DHT22;5802;52.832;4.758;2022-12-20T01:46:25;21.70;43.30
11491;DHT22;5802;52.832;4.758;2022-12-20T01:48:55;21.70;43.30
11491;DHT22;5802;52.832;4.758;2022-12-20T01:51:25;21.70;43.20
11491;DHT22;5802;52.832;4.758;2022-12-20T01:53:56;21.70;43.20
11491;DHT22;5802;52.832;4.758;2022-12-20T01:56:25;21.70;43.20
11491;DHT22;5802;52.832;4.758;2022-12-20T01:58:52;21.70;43.20
11491;DHT22;5802;52.832;4.758;2022-12-20T02:01:20;21.70;43.10
11491;DHT22;5802;52.832;4.758;2022-12-20T02:03:48;21.70;43.10
11491;DHT22;5802;52.832;4.758;2022-12-20T02:06:18;21.80;43.20
11491;DHT22;5802;52.832;4.758;2022-12-20T02:08:47;21.80;43.20
11491;DHT22;5802;52.832;4.758;2022-12-20T02:11:27;21.80;43.20
11491;DHT22;5802;52.832;4.758;2022-12-20T02:14:07;21.80;43.20
11491;DHT22;5802;52.832;4.758;2022-12-20T02:16:39;21.80;43.20
11491;DHT22;5802;52.832;4.758;2022-12-20T02:19:20;21.80;43.20
11491;DHT22;5802;52.832;4.758;2022-12-20T02:21:54;21.80;43.20
11491;DHT22;5802;52.832;4.758;2022-12-20T02:24:47;21.80;43.20
11491;DHT22;5802;52.832;4.758;2022-12-20T02:27:38;21.90;43.20
11491;DHT22;5802;52.832;4.758;2022-12-20T02:30:13;21.90;43.20
11491;DHT22;5802;52.832;4.758;2022-12-20T02:32:46;21.90;43.20
11491;DHT22;5802;52.832;4.758;2022-12-20T02:35:19;21.90;43.20
11491;DHT22;5802;52.832;4.758;2022-12-20T02:37:48;21.90;43.20
11491;DHT22;5802;52.832;4.758;2022-12-20T02:40:17;21.90;43.10
11491;DHT22;5802;52.832;4.758;2022-12-20T02:42:45;21.90;43.10
11491;DHT22;5802;52.832;4.758;2022-12-20T02:45:14;21.90;43.10
11491;DHT22;5802;52.832;4.758;2022-12-20T02:47:45;22.00;43.10
11491;DHT22;5802;52.832;4.758;2022-12-20T02:50:14;22.00;43.10
11491;DHT22;5802;52.832;4.758;2022-12-20T02:52:42;22.00;43.10
11491;DHT22;5802;52.832;4.758;2022-12-20T02:55:09;22.00;43.10
11491;DHT22;5802;52.832;4.758;2022-12-20T02:57:41;22.00;43.10
11491;DHT22;5802;52.832;4.758;2022-12-20T03:00:14;22.00;43.10
11491;DHT22;5802;52.832;4.758;2022-12-20T03:02:44;22.00;43.00
11491;DHT22;5802;52.832;4.758;2022-12-20T03:05:29;22.00;43.00
11491;DHT22;5802;52.832;4.758;2022-12-20T03:07:57;22.00;43.10
11491;DHT22;5802;52.832;4.758;2022-12-20T03:10:25;22.00;43.00
11491;DHT22;5802;52.832;4.758;2022-12-20T03:12:52;22.00;43.00
11491;DHT22;5802;52.832;4.758;2022-12-20T03:15:20;22.10;43.00
11491;DHT22;5802;52.832;4.758;2022-12-20T03:17:46;22.10;43.00
11491;DHT22;5802;52.832;4.758;2022-12-20T03:20:13;22.10;43.00
11491;DHT22;5802;52.832;4.758;2022-12-20T03:22:40;22.10;43.00
11491;DHT22;5802;52.832;4.758;2022-12-20T03:25:07;22.10;43.00
11491;DHT22;5802;52.832;4.758;2022-12-20T03:27:34;22.10;43.00
11491;DHT22;5802;52.832;4.758;2022-12-20T03:30:02;22.10;43.00
11491;DHT22;5802;52.832;4.758;2022-12-20T03:32:30;22.10;42.90
11491;DHT22;5802;52.832;4.758;2022-12-20T03:34:57;22.10;42.90
11491;DHT22;5802;52.832;4.758;2022-12-20T03:37:24;22.10;42.90
11491;DHT22;5802;52.832;4.758;2022-12-20T03:39:50;22.10;42.90
11491;DHT22;5802;52.832;4.758;2022-12-20T03:42:17;22.10;42.90
11491;DHT22;5802;52.832;4.758;2022-12-20T03:44:44;22.10;42.90
11491;DHT22;5802;52.832;4.758;2022-12-20T03:47:10;22.10;42.90
11491;DHT22;5802;52.832;4.758;2022-12-20T03:49:38;22.10;42.90
11491;DHT22;5802;52.832;4.758;2022-12-20T03:52:05;22.10;42.80
11491;DHT22;5802;52.832;4.758;2022-12-20T03:54:32;22.10;42.80
11491;DHT22;5802;52.832;4.758;2022-12-20T03:56:59;22.10;42.90
11491;DHT22;5802;52.832;4.758;2022-12-20T03:59:26;22.10;42.80
11491;DHT22;5802;52.832;4.758;2022-12-20T04:01:53;22.10;42.70
11491;DHT22;5802;52.832;4.758;2022-12-20T04:04:19;22.20;42.80
11491;DHT22;5802;52.832;4.758;2022-12-20T04:06:47;22.10;42.80
11491;DHT22;5802;52.832;4.758;2022-12-20T04:09:14;22.20;42.80
11491;DHT22;5802;52.832;4.758;2022-12-20T04:11:41;22.20;42.70
11491;DHT22;5802;52.832;4.758;2022-12-20T04:14:09;22.10;42.70
11491;DHT22;5802;52.832;4.758;2022-12-20T04:16:35;22.20;42.70
11491;DHT22;5802;52.832;4.758;2022-12-20T04:19:02;22.10;42.60
11491;DHT22;5802;52.832;4.758;2022-12-20T04:21:30;22.20;42.70
11491;DHT22;5802;52.832;4.758;2022-12-20T04:24:00;22.20;42.70
11491;DHT22;5802;52.832;4.758;2022-12-20T04:26:27;22.20;42.60
11491;DHT22;5802;52.832;4.758;2022-12-20T04:28:54;22.20;42.60
11491;DHT22;5802;52.832;4.758;2022-12-20T04:31:21;22.20;42.60
11491;DHT22;5802;52.832;4.758;2022-12-20T04:33:47;22.20;42.50
11491;DHT22;5802;52.832;4.758;2022-12-20T04:36:14;22.20;42.50
11491;DHT22;5802;52.832;4.758;2022-12-20T04:38:42;22.20;42.50
11491;DHT22;5802;52.832;4.758;2022-12-20T04:41:10;22.20;42.50
11491;DHT22;5802;52.832;4.758;2022-12-20T04:43:47;22.20;42.50
11491;DHT22;5802;52.832;4.758;2022-12-20T04:46:14;22.20;42.50
11491;DHT22;5802;52.832;4.758;2022-12-20T04:48:40;22.20;42.50
11491;DHT22;5802;52.832;4.758;2022-12-20T04:51:07;22.20;42.50
11491;DHT22;5802;52.832;4.758;2022-12-20T04:53:34;22.20;42.40
11491;DHT22;5802;52.832;4.758;2022-12-20T04:56:15;22.20;42.40
11491;DHT22;5802;52.832;4.758;2022-12-20T04:58:42;22.20;42.40
11491;DHT22;5802;52.832;4.758;2022-12-20T05:01:09;22.20;42.40
11491;DHT22;5802;52.832;4.758;2022-12-20T05:03:36;22.20;42.40
11491;DHT22;5802;52.832;4.758;2022-12-20T05:06:03;22.20;42.40
11491;DHT22;5802;52.832;4.758;2022-12-20T05:08:29;22.20;42.40
11491;DHT22;5802;52.832;4.758;2022-12-20T05:10:56;22.20;42.40
11491;DHT22;5802;52.832;4.758;2022-12-20T05:13:24;22.20;42.40
11491;DHT22;5802;52.832;4.758;2022-12-20T05:15:51;22.20;42.40
11491;DHT22;5802;52.832;4.758;2022-12-20T05:18:18;22.20;42.40
11491;DHT22;5802;52.832;4.758;2022-12-20T05:20:45;22.20;42.40
11491;DHT22;5802;52.832;4.758;2022-12-20T05:23:11;22.20;42.40
11491;DHT22;5802;52.832;4.758;2022-12-20T05:25:56;22.20;42.40
11491;DHT22;5802;52.832;4.758;2022-12-20T05:28:41;22.20;42.40
11491;DHT22;5802;52.832;4.758;2022-12-20T05:31:09;22.20;42.50
11491;DHT22;5802;52.832;4.758;2022-12-20T05:33:35;22.20;42.50
11491;DHT22;5802;52.832;4.758;2022-12-20T05:36:02;22.20;42.50
11491;DHT22;5802;52.832;4.758;2022-12-20T05:38:29;22.20;42.50
11491;DHT22;5802;52.832;4.758;2022-12-20T05:40:56;22.20;42.50
11491;DHT22;5802;52.832;4.758;2022-12-20T05:43:22;22.20;42.50
11491;DHT22;5802;52.832;4.758;2022-12-20T05:45:52;22.20;42.60
11491;DHT22;5802;52.832;4.758;2022-12-20T05:48:19;22.20;42.60
11491;DHT22;5802;52.832;4.758;2022-12-20T05:50:46;22.20;42.60
11491;DHT22;5802;52.832;4.758;2022-12-20T05:53:13;22.20;42.60
11491;DHT22;5802;52.832;4.758;2022-12-20T05:55:43;22.20;42.60
11491;DHT22;5802;52.832;4.758;2022-12-20T05:58:09;22.20;42.60
11491;DHT22;5802;52.832;4.758;2022-12-20T06:00:38;22.20;42.60
11491;DHT22;5802;52.832;4.758;2022-12-20T06:03:07;22.20;42.70
11491;DHT22;5802;52.832;4.758;2022-12-20T06:05:35;22.20;42.70
11491;DHT22;5802;52.832;4.758;2022-12-20T06:08:02;22.20;42.70
11491;DHT22;5802;52.832;4.758;2022-12-20T06:10:29;22.20;42.70
11491;DHT22;5802;52.832;4.758;2022-12-20T06:12:55;22.20;42.70
11491;DHT22;5802;52.832;4.758;2022-12-20T06:15:22;22.20;42.70
11491;DHT22;5802;52.832;4.758;2022-12-20T06:17:49;22.10;42.70
11491;DHT22;5802;52.832;4.758;2022-12-20T06:20:17;22.10;42.60
11491;DHT22;5802;52.832;4.758;2022-12-20T06:22:44;22.10;42.70
11491;DHT22;5802;52.832;4.758;2022-12-20T06:25:11;22.10;42.70
11491;DHT22;5802;52.832;4.758;2022-12-20T06:27:39;22.10;42.70
11491;DHT22;5802;52.832;4.758;2022-12-20T06:30:07;22.10;42.70
11491;DHT22;5802;52.832;4.758;2022-12-20T06:32:34;22.10;42.70
11491;DHT22;5802;52.832;4.758;2022-12-20T06:35:00;22.10;42.70
11491;DHT22;5802;52.832;4.758;2022-12-20T06:37:29;22.10;42.70
11491;DHT22;5802;52.832;4.758;2022-12-20T06:39:56;22.10;42.70
11491;DHT22;5802;52.832;4.758;2022-12-20T06:42:23;22.10;42.70
11491;DHT22;5802;52.832;4.758;2022-12-20T06:44:49;22.10;42.70
11491;DHT22;5802;52.832;4.758;2022-12-20T06:47:16;22.10;42.70
11491;DHT22;5802;52.832;4.758;2022-12-20T06:49:43;22.10;42.70
11491;DHT22;5802;52.832;4.758;2022-12-20T06:52:09;22.10;42.70
11491;DHT22;5802;52.832;4.758;2022-12-20T06:54:37;22.10;42.70
11491;DHT22;5802;52.832;4.758;2022-12-20T06:57:04;22.10;42.80
11491;DHT22;5802;52.832;4.758;2022-12-20T06:59:31;22.10;42.80
11491;DHT22;5802;52.832;4.758;2022-12-20T07:01:58;22.10;42.90
11491;DHT22;5802;52.832;4.758;2022-12-20T07:04:24;22.10;42.90
11491;DHT22;5802;52.832;4.758;2022-12-20T07:06:51;22.10;42.90
11491;DHT22;5802;52.832;4.758;2022-12-20T07:09:18;22.10;42.90
11491;DHT22;5802;52.832;4.758;2022-12-20T07:11:46;22.10;43.00
11491;DHT22;5802;52.832;4.758;2022-12-20T07:14:13;22.10;43.00
11491;DHT22;5802;52.832;4.758;2022-12-20T07:16:39;22.10;43.00
11491;DHT22;5802;52.832;4.758;2022-12-20T07:19:09;22.10;43.00
11491;DHT22;5802;52.832;4.758;2022-12-20T07:21:37;22.10;43.00
11491;DHT22;5802;52.832;4.758;2022-12-20T07:24:04;22.10;43.00
11491;DHT22;5802;52.832;4.758;2022-12-20T07:26:31;22.00;42.90
11491;DHT22;5802;52.832;4.758;2022-12-20T07:28:59;22.10;43.00
11491;DHT22;5802;52.832;4.758;2022-12-20T07:31:26;22.10;43.00
11491;DHT22;5802;52.832;4.758;2022-12-20T07:33:53;22.10;43.00
11491;DHT22;5802;52.832;4.758;2022-12-20T07:36:19;22.00;43.00
11491;DHT22;5802;52.832;4.758;2022-12-20T07:38:46;22.00;43.00
11491;DHT22;5802;52.832;4.758;2022-12-20T07:41:15;22.00;43.00
11491;DHT22;5802;52.832;4.758;2022-12-20T07:43:42;22.00;43.00
11491;DHT22;5802;52.832;4.758;2022-12-20T07:46:13;22.00;43.00
11491;DHT22;5802;52.832;4.758;2022-12-20T07:48:39;22.00;43.00
11491;DHT22;5802;52.832;4.758;2022-12-20T07:51:09;22.00;43.00
11491;DHT22;5802;52.832;4.758;2022-12-20T07:53:39;22.00;43.00
11491;DHT22;5802;52.832;4.758;2022-12-20T07:56:07;22.00;43.10
11491;DHT22;5802;52.832;4.758;2022-12-20T07:58:36;22.00;43.00
11491;DHT22;5802;52.832;4.758;2022-12-20T08:01:05;22.00;43.00
11491;DHT22;5802;52.832;4.758;2022-12-20T08:03:36;22.00;43.10
11491;DHT22;5802;52.832;4.758;2022-12-20T08:06:05;22.00;43.10
11491;DHT22;5802;52.832;4.758;2022-12-20T08:08:34;22.00;43.00
11491;DHT22;5802;52.832;4.758;2022-12-20T08:11:02;22.00;43.00
11491;DHT22;5802;52.832;4.758;2022-12-20T08:13:31;22.10;43.00
11491;DHT22;5802;52.832;4.758;2022-12-20T08:15:58;22.00;43.00
11491;DHT22;5802;52.832;4.758;2022-12-20T08:18:25;22.00;43.00
11491;DHT22;5802;52.832;4.758;2022-12-20T08:20:53;22.00;43.00
11491;DHT22;5802;52.832;4.758;2022-12-20T08:23:20;22.10;43.00
11491;DHT22;5802;52.832;4.758;2022-12-20T08:25:47;22.00;42.90
11491;DHT22;5802;52.832;4.758;2022-12-20T08:28:14;22.10;43.00
11491;DHT22;5802;52.832;4.758;2022-12-20T08:30:41;22.10;43.00
11491;DHT22;5802;52.832;4.758;2022-12-20T08:33:08;22.10;42.90
11491;DHT22;5802;52.832;4.758;2022-12-20T08:35:35;22.10;42.90
11491;DHT22;5802;52.832;4.758;2022-12-20T08:38:03;22.10;42.90
11491;DHT22;5802;52.832;4.758;2022-12-20T08:40:29;22.10;42.90
11491;DHT22;5802;52.832;4.758;2022-12-20T08:42:57;22.10;42.90
11491;DHT22;5802;52.832;4.758;2022-12-20T08:45:24;22.10;42.90
11491;DHT22;5802;52.832;4.758;2022-12-20T08:47:50;22.10;43.60
11491;DHT22;5802;52.832;4.758;2022-12-20T08:50:18;22.10;43.00
11491;DHT22;5802;52.832;4.758;2022-12-20T08:52:45;22.10;43.00
11491;DHT22;5802;52.832;4.758;2022-12-20T08:55:13;22.10;43.00
11491;DHT22;5802;52.832;4.758;2022-12-20T08:57:40;22.10;43.00
11491;DHT22;5802;52.832;4.758;2022-12-20T09:00:07;22.10;42.90
11491;DHT22;5802;52.832;4.758;2022-12-20T09:02:35;22.10;42.90
11491;DHT22;5802;52.832;4.758;2022-12-20T09:05:03;22.10;43.00
11491;DHT22;5802;52.832;4.758;2022-12-20T09:07:30;22.10;42.90
11491;DHT22;5802;52.832;4.758;2022-12-20T09:09:57;22.10;43.00
11491;DHT22;5802;52.832;4.758;2022-12-20T09:12:25;22.10;43.00
11491;DHT22;5802;52.832;4.758;2022-12-20T09:14:51;22.20;43.00
11491;DHT22;5802;52.832;4.758;2022-12-20T09:17:18;22.20;43.10
11491;DHT22;5802;52.832;4.758;2022-12-20T09:19:45;22.10;43.00
11491;DHT22;5802;52.832;4.758;2022-12-20T09:22:12;22.10;43.00
11491;DHT22;5802;52.832;4.758;2022-12-20T09:24:38;22.10;43.00
11491;DHT22;5802;52.832;4.758;2022-12-20T09:27:05;22.10;43.00
11491;DHT22;5802;52.832;4.758;2022-12-20T09:29:33;22.10;43.00
11491;DHT22;5802;52.832;4.758;2022-12-20T09:32:00;22.10;43.70
11491;DHT22;5802;52.832;4.758;2022-12-20T09:34:26;22.20;43.10
11491;DHT22;5802;52.832;4.758;2022-12-20T09:36:53;22.20;43.10
11491;DHT22;5802;52.832;4.758;2022-12-20T09:39:20;22.20;43.10
11491;DHT22;5802;52.832;4.758;2022-12-20T09:41:46;22.20;43.10
11491;DHT22;5802;52.832;4.758;2022-12-20T09:44:16;22.10;43.10
11491;DHT22;5802;52.832;4.758;2022-12-20T09:46:50;22.10;43.20
11491;DHT22;5802;52.832;4.758;2022-12-20T09:49:20;22.10;43.30
11491;DHT22;5802;52.832;4.758;2022-12-20T09:52:02;22.20;43.30
11491;DHT22;5802;52.832;4.758;2022-12-20T09:54:37;22.20;43.30
11491;DHT22;5802;52.832;4.758;2022-12-20T09:57:16;22.20;43.30
11491;DHT22;5802;52.832;4.758;2022-12-20T09:59:47;22.20;43.30
11491;DHT22;5802;52.832;4.758;2022-12-20T10:02:19;22.10;43.30
11491;DHT22;5802;52.832;4.758;2022-12-20T10:04:46;22.20;44.10
11491;DHT22;5802;52.832;4.758;2022-12-20T10:07:24;22.20;43.40
11491;DHT22;5802;52.832;4.758;2022-12-20T10:10:08;22.20;43.50
11491;DHT22;5802;52.832;4.758;2022-12-20T10:12:46;22.20;43.50
11491;DHT22;5802;52.832;4.758;2022-12-20T10:15:21;22.20;43.50
11491;DHT22;5802;52.832;4.758;2022-12-20T10:18:08;22.20;43.50
11491;DHT22;5802;52.832;4.758;2022-12-20T10:20:45;22.20;43.60
11491;DHT22;5802;52.832;4.758;2022-12-20T10:23:20;22.20;43.60
11491;DHT22;5802;52.832;4.758;2022-12-20T10:25:51;22.20;43.60
11491;DHT22;5802;52.832;4.758;2022-12-20T10:28:22;22.20;43.70
11491;DHT22;5802;52.832;4.758;2022-12-20T10:30:51;22.20;43.70
11491;DHT22;5802;52.832;4.758;2022-12-20T10:33:21;22.10;43.80
11491;DHT22;5802;52.832;4.758;2022-12-20T10:35:49;22.20;43.80
11491;DHT22;5802;52.832;4.758;2022-12-20T10:38:17;22.20;43.80
11491;DHT22;5802;52.832;4.758;2022-12-20T10:40:46;22.20;43.90
11491;DHT22;5802;52.832;4.758;2022-12-20T10:43:17;22.20;44.00
11491;DHT22;5802;52.832;4.758;2022-12-20T10:45:54;22.20;44.00
11491;DHT22;5802;52.832;4.758;2022-12-20T10:48:31;22.20;44.00
11491;DHT22;5802;52.832;4.758;2022-12-20T10:51:00;22.20;44.20
11491;DHT22;5802;52.832;4.758;2022-12-20T10:53:28;22.20;44.20
11491;DHT22;5802;52.832;4.758;2022-12-20T10:56:11;22.20;44.30
11491;DHT22;5802;52.832;4.758;2022-12-20T10:58:39;22.20;44.30
11491;DHT22;5802;52.832;4.758;2022-12-20T11:01:12;22.20;44.50
11491;DHT22;5802;52.832;4.758;2022-12-20T11:03:53;22.20;44.50
11491;DHT22;5802;52.832;4.758;2022-12-20T11:06:22;22.20;44.60
11491;DHT22;5802;52.832;4.758;2022-12-20T11:08:49;22.20;44.60
11491;DHT22;5802;52.832;4.758;2022-12-20T11:11:19;22.20;44.60
11491;DHT22;5802;52.832;4.758;2022-12-20T11:13:47;22.20;44.70
11491;DHT22;5802;52.832;4.758;2022-12-20T11:16:28;22.20;44.80
11491;DHT22;5802;52.832;4.758;2022-12-20T11:19:05;22.20;44.80
11491;DHT22;5802;52.832;4.758;2022-12-20T11:21:41;22.30;44.70
11491;DHT22;5802;52.832;4.758;2022-12-20T11:24:13;22.20;44.70
11491;DHT22;5802;52.832;4.758;2022-12-20T11:26:54;22.30;44.70
11491;DHT22;5802;52.832;4.758;2022-12-20T11:29:43;22.20;44.70
11491;DHT22;5802;52.832;4.758;2022-12-20T11:32:25;22.20;44.60
11491;DHT22;5802;52.832;4.758;2022-12-20T11:35:02;22.30;44.70
11491;DHT22;5802;52.832;4.758;2022-12-20T11:37:32;22.20;44.60
11491;DHT22;5802;52.832;4.758;2022-12-20T11:40:15;22.20;44.60
11491;DHT22;5802;52.832;4.758;2022-12-20T11:42:52;22.30;44.60
11491;DHT22;5802;52.832;4.758;2022-12-20T11:45:26;22.30;44.60
11491;DHT22;5802;52.832;4.758;2022-12-20T11:48:18;22.20;44.50
11491;DHT22;5802;52.832;4.758;2022-12-20T11:51:00;22.30;44.60
11491;DHT22;5802;52.832;4.758;2022-12-20T11:53:33;22.30;44.50
11491;DHT22;5802;52.832;4.758;2022-12-20T11:56:06;22.30;44.50
11491;DHT22;5802;52.832;4.758;2022-12-20T11:58:46;22.30;44.50
11491;DHT22;5802;52.832;4.758;2022-12-20T12:01:16;22.30;44.40
11491;DHT22;5802;52.832;4.758;2022-12-20T12:03:51;22.30;44.50
11491;DHT22;5802;52.832;4.758;2022-12-20T12:06:26;22.30;44.40
11491;DHT22;5802;52.832;4.758;2022-12-20T12:09:02;22.20;44.30
11491;DHT22;5802;52.832;4.758;2022-12-20T12:11:34;22.30;44.30
11491;DHT22;5802;52.832;4.758;2022-12-20T12:14:03;22.30;44.30
11491;DHT22;5802;52.832;4.758;2022-12-20T12:16:34;22.30;44.30
11491;DHT22;5802;52.832;4.758;2022-12-20T12:19:04;22.30;44.30
11491;DHT22;5802;52.832;4.758;2022-12-20T12:21:39;22.30;44.20
11491;DHT22;5802;52.832;4.758;2022-12-20T12:24:16;22.20;44.20
11491;DHT22;5802;52.832;4.758;2022-12-20T12:26:45;22.20;44.20
11491;DHT22;5802;52.832;4.758;2022-12-20T12:29:13;22.20;44.20
11491;DHT22;5802;52.832;4.758;2022-12-20T12:31:43;22.20;44.20
11491;DHT22;5802;52.832;4.758;2022-12-20T12:34:24;22.20;44.20
11491;DHT22;5802;52.832;4.758;2022-12-20T12:37:23;22.20;44.20
11491;DHT22;5802;52.832;4.758;2022-12-20T12:40:23;22.20;44.20
11491;DHT22;5802;52.832;4.758;2022-12-20T12:43:22;22.20;44.30
11491;DHT22;5802;52.832;4.758;2022-12-20T12:45:57;22.20;44.50
11491;DHT22;5802;52.832;4.758;2022-12-20T12:48:28;22.20;44.50
11491;DHT22;5802;52.832;4.758;2022-12-20T12:50:58;22.20;44.60
11491;DHT22;5802;52.832;4.758;2022-12-20T12:53:33;22.10;44.50
11491;DHT22;5802;52.832;4.758;2022-12-20T12:56:38;22.20;44.60
11491;DHT22;5802;52.832;4.758;2022-12-20T12:59:21;22.20;44.60
11491;DHT22;5802;52.832;4.758;2022-12-20T13:01:50;22.20;44.50
11491;DHT22;5802;52.832;4.758;2022-12-20T13:04:23;22.20;44.50
11491;DHT22;5802;52.832;4.758;2022-12-20T13:07:02;22.20;44.50
11491;DHT22;5802;52.832;4.758;2022-12-20T13:09:50;22.20;44.40
11491;DHT22;5802;52.832;4.758;2022-12-20T13:12:52;22.20;44.40
11491;DHT22;5802;52.832;4.758;2022-12-20T13:15:46;22.20;44.40
11491;DHT22;5802;52.832;4.758;2022-12-20T13:18:24;22.20;44.50
11491;DHT22;5802;52.832;4.758;2022-12-20T13:21:34;22.20;44.50
11491;DHT22;5802;52.832;4.758;2022-12-20T13:27:22;22.20;44.60
11491;DHT22;5802;52.832;4.758;2022-12-20T13:30:22;22.20;44.60
11491;DHT22;5802;52.832;4.758;2022-12-20T13:33:17;22.20;44.60
11491;DHT22;5802;52.832;4.758;2022-12-20T13:36:02;22.20;44.60
11491;DHT22;5802;52.832;4.758;2022-12-20T13:39:00;22.20;44.50
11491;DHT22;5802;52.832;4.758;2022-12-20T13:41:38;22.20;44.50
11491;DHT22;5802;52.832;4.758;2022-12-20T13:44:29;22.20;44.50
11491;DHT22;5802;52.832;4.758;2022-12-20T13:47:05;22.20;44.50
11491;DHT22;5802;52.832;4.758;2022-12-20T13:49:36;22.20;44.60
11491;DHT22;5802;52.832;4.758;2022-12-20T13:52:23;22.20;44.50
11491;DHT22;5802;52.832;4.758;2022-12-20T13:54:53;22.30;44.60
11491;DHT22;5802;52.832;4.758;2022-12-20T13:57:27;22.30;44.50
11491;DHT22;5802;52.832;4.758;2022-12-20T13:59:57;22.30;44.50
11491;DHT22;5802;52.832;4.758;2022-12-20T14:02:29;22.30;44.40
11491;DHT22;5802;52.832;4.758;2022-12-20T14:04:58;22.30;44.40
11491;DHT22;5802;52.832;4.758;2022-12-20T14:07:27;22.30;44.40
11491;DHT22;5802;52.832;4.758;2022-12-20T14:09:57;22.30;44.40
11491;DHT22;5802;52.832;4.758;2022-12-20T14:12:25;22.30;44.40
11491;DHT22;5802;52.832;4.758;2022-12-20T14:14:52;22.30;44.30
11491;DHT22;5802;52.832;4.758;2022-12-20T14:17:24;22.30;44.30
11491;DHT22;5802;52.832;4.758;2022-12-20T14:20:11;22.30;44.40
11491;DHT22;5802;52.832;4.758;2022-12-20T14:22:41;22.30;44.40
11491;DHT22;5802;52.832;4.758;2022-12-20T14:25:15;22.30;44.30
11491;DHT22;5802;52.832;4.758;2022-12-20T14:27:43;22.30;44.30
11491;DHT22;5802;52.832;4.758;2022-12-20T14:30:25;22.30;44.40
11491;DHT22;5802;52.832;4.758;2022-12-20T14:32:54;22.30;44.60
11491;DHT22;5802;52.832;4.758;2022-12-20T14:35:22;22.30;44.50
11491;DHT22;5802;52.832;4.758;2022-12-20T14:37:53;22.30;44.60
11491;DHT22;5802;52.832;4.758;2022-12-20T14:40:20;22.30;44.50
11491;DHT22;5802;52.832;4.758;2022-12-20T14:42:47;22.30;44.50
11491;DHT22;5802;52.832;4.758;2022-12-20T14:45:20;22.30;44.50
11491;DHT22;5802;52.832;4.758;2022-12-20T14:48:00;22.30;44.60
11491;DHT22;5802;52.832;4.758;2022-12-20T14:50:30;22.30;44.60
11491;DHT22;5802;52.832;4.758;2022-12-20T14:52:57;22.30;44.50
11491;DHT22;5802;52.832;4.758;2022-12-20T14:55:30;22.30;44.60
11491;DHT22;5802;52.832;4.758;2022-12-20T14:57:57;22.30;44.80
11491;DHT22;5802;52.832;4.758;2022-12-20T15:00:26;22.30;44.80
11491;DHT22;5802;52.832;4.758;2022-12-20T15:03:01;22.30;44.80
11491;DHT22;5802;52.832;4.758;2022-12-20T15:05:47;22.30;44.90
11491;DHT22;5802;52.832;4.758;2022-12-20T15:08:16;22.30;45.20
11491;DHT22;5802;52.832;4.758;2022-12-20T15:10:51;22.40;45.60
11491;DHT22;5802;52.832;4.758;2022-12-20T15:13:20;22.30;45.50
11491;DHT22;5802;52.832;4.758;2022-12-20T15:15:47;22.30;45.70
11491;DHT22;5802;52.832;4.758;2022-12-20T15:18:17;22.30;45.80
11491;DHT22;5802;52.832;4.758;2022-12-20T15:20:45;22.40;45.90
11491;DHT22;5802;52.832;4.758;2022-12-20T15:23:15;22.40;45.80
11491;DHT22;5802;52.832;4.758;2022-12-20T15:25:43;22.40;45.90
11491;DHT22;5802;52.832;4.758;2022-12-20T15:28:15;22.30;45.80
11491;DHT22;5802;52.832;4.758;2022-12-20T15:30:43;22.30;45.80
11491;DHT22;5802;52.832;4.758;2022-12-20T15:33:16;22.40;45.90
11491;DHT22;5802;52.832;4.758;2022-12-20T15:35:44;22.30;45.80
11491;DHT22;5802;52.832;4.758;2022-12-20T15:38:16;22.40;45.90
11491;DHT22;5802;52.832;4.758;2022-12-20T15:40:45;22.40;45.90
11491;DHT22;5802;52.832;4.758;2022-12-20T15:43:13;22.40;46.00
11491;DHT22;5802;52.832;4.758;2022-12-20T15:45:42;22.40;46.00
11491;DHT22;5802;52.832;4.758;2022-12-20T15:48:13;22.30;45.90
11491;DHT22;5802;52.832;4.758;2022-12-20T15:50:48;22.40;45.90
11491;DHT22;5802;52.832;4.758;2022-12-20T15:53:16;22.30;45.80
11491;DHT22;5802;52.832;4.758;2022-12-20T15:55:48;22.40;45.70
11491;DHT22;5802;52.832;4.758;2022-12-20T15:58:15;22.30;45.60
11491;DHT22;5802;52.832;4.758;2022-12-20T16:00:41;22.40;45.70
11491;DHT22;5802;52.832;4.758;2022-12-20T16:03:13;22.40;45.60
11491;DHT22;5802;52.832;4.758;2022-12-20T16:05:40;22.40;45.90
11491;DHT22;5802;52.832;4.758;2022-12-20T16:08:09;22.40;45.70
11491;DHT22;5802;52.832;4.758;2022-12-20T16:10:35;22.30;45.70